Danforth, South Dakota
Current Conditions -  °F | °C
As of 12:55 AM on Saturday 25 Oct 2014 (Local Time) from KHON Reporting Station
Clear Clear  
Wind Chill: 51°   Ceiling: Unl
Heat Index: 51°   Visibility: 10mi
Dew Point: 39°   Wind: 0mph
Humidity: 63%   Direction: NA
Pressure: 30.05"   Gusts: NA
Location:  44.3714°N, 98.681°W
Report Text: KHON 250555Z AUTO 00000KT 10SM CLR 11/04 A3005 RMK AO2 SLP175 T01060039 10156 20094 402720022 52023
Loading
Personal Weather Stations






























Interactive Weather Map
Tropical Storm Tracking
New forecast layout! Learn more

10-Day Weather Forecast

Advertisements
Track Severe Weather on mobile